createdAt,value
2022-12-18T00:01:18.531Z,98836.40
2022-12-18T00:03:46.198Z,98839.80
2022-12-18T00:06:15.620Z,98842.00
2022-12-18T00:08:43.992Z,98841.40
2022-12-18T00:11:16.170Z,98844.80
2022-12-18T00:13:43.340Z,98840.40
2022-12-18T00:16:13.111Z,98843.00
2022-12-18T00:18:41.119Z,98832.40
2022-12-18T00:21:11.210Z,98831.00
2022-12-18T00:23:39.769Z,98841.20
2022-12-18T00:26:11.634Z,98841.20
2022-12-18T00:28:41.035Z,98846.80
2022-12-18T00:31:11.030Z,98850.20
2022-12-18T00:33:39.144Z,98859.60
2022-12-18T00:36:22.169Z,98856.60
2022-12-18T00:38:49.480Z,98858.00
2022-12-18T00:41:45.272Z,98859.40
2022-12-18T00:44:15.131Z,98867.20
2022-12-18T00:46:42.775Z,98871.40
2022-12-18T00:49:10.435Z,98866.00
2022-12-18T00:51:38.915Z,98869.80
2022-12-18T00:54:06.064Z,98872.60
2022-12-18T00:56:32.814Z,98867.80
2022-12-18T00:58:59.563Z,98870.40
2022-12-18T01:01:26.373Z,98867.00
2022-12-18T01:03:53.212Z,98867.20
2022-12-18T01:06:21.000Z,98871.20
2022-12-18T01:08:47.835Z,98877.80
2022-12-18T01:11:20.533Z,98881.20
2022-12-18T01:13:48.073Z,98886.40
2022-12-18T01:16:16.289Z,98886.60
2022-12-18T01:18:43.475Z,98889.60
2022-12-18T01:21:12.643Z,98889.40
2022-12-18T01:23:39.969Z,98890.80
2022-12-18T01:26:08.509Z,98897.20
2022-12-18T01:28:36.140Z,98898.40
2022-12-18T01:31:17.101Z,98904.40
2022-12-18T01:33:45.236Z,98901.60
2022-12-18T01:36:21.779Z,98904.20
2022-12-18T01:38:49.775Z,98910.00
2022-12-18T01:41:18.411Z,98917.20
2022-12-18T01:43:55.074Z,98927.00
2022-12-18T01:46:24.638Z,98924.20
2022-12-18T01:48:56.608Z,98926.40
2022-12-18T01:51:26.760Z,98927.20
2022-12-18T01:53:53.666Z,98936.00
2022-12-18T01:56:22.195Z,98933.80
2022-12-18T01:59:02.606Z,98930.40
2022-12-18T02:01:31.767Z,98925.60
2022-12-18T02:04:24.701Z,98923.60
2022-12-18T02:07:02.316Z,98921.00
2022-12-18T02:09:38.206Z,98918.80
2022-12-18T02:12:30.085Z,98920.80
2022-12-18T02:15:05.992Z,98899.60
2022-12-18T02:17:45.129Z,98914.60
2022-12-18T02:20:22.828Z,98913.20
2022-12-18T02:23:03.175Z,98911.20
2022-12-18T02:26:02.482Z,98909.00
2022-12-18T02:28:33.466Z,98901.80
2022-12-18T02:31:04.123Z,98902.20
2022-12-18T02:33:34.757Z,98909.00
2022-12-18T02:36:03.007Z,98909.00
2022-12-18T02:38:32.359Z,98913.00
2022-12-18T02:41:05.059Z,98912.40
2022-12-18T02:43:31.867Z,98902.80
2022-12-18T02:46:01.568Z,98917.00
2022-12-18T02:48:35.232Z,98913.80
2022-12-18T02:51:12.909Z,98921.20
2022-12-18T02:54:06.472Z,98923.80
2022-12-18T02:56:50.603Z,98927.40
2022-12-18T02:59:25.146Z,98927.40
2022-12-18T03:02:04.662Z,98927.60
2022-12-18T03:05:03.912Z,98923.20
2022-12-18T03:07:56.768Z,98926.80
2022-12-18T03:10:39.637Z,98916.40
2022-12-18T03:13:11.750Z,98915.60
2022-12-18T03:15:54.176Z,98924.00
2022-12-18T03:18:33.897Z,98926.00
2022-12-18T03:21:06.283Z,98924.00
2022-12-18T03:23:44.044Z,98925.60
2022-12-18T03:26:16.661Z,98926.40
2022-12-18T03:28:58.608Z,98926.00
2022-12-18T03:31:29.356Z,98927.80
2022-12-18T03:34:05.189Z,98929.60
2022-12-18T03:36:40.115Z,98931.20
2022-12-18T03:39:07.793Z,98928.80
2022-12-18T03:41:50.022Z,98930.60
2022-12-18T03:44:52.350Z,98929.20
2022-12-18T03:47:28.722Z,98933.80
2022-12-18T03:50:24.030Z,98924.00
2022-12-18T03:52:58.496Z,98916.60
2022-12-18T03:55:28.315Z,98910.60
2022-12-18T03:58:00.885Z,98914.20
2022-12-18T04:00:32.533Z,98920.40
2022-12-18T04:03:06.068Z,98916.20
2022-12-18T04:05:39.800Z,98928.00
2022-12-18T04:08:07.152Z,98931.60
2022-12-18T04:10:37.168Z,98930.40
2022-12-18T04:13:04.114Z,98936.40
2022-12-18T04:15:34.398Z,98939.40
2022-12-18T04:18:01.688Z,98940.20
2022-12-18T04:20:33.141Z,98946.40
2022-12-18T04:23:02.745Z,98950.80
2022-12-18T04:25:29.672Z,98946.20
2022-12-18T04:28:08.136Z,98952.40
2022-12-18T04:30:35.477Z,98954.60
2022-12-18T04:33:02.323Z,98957.40
2022-12-18T04:35:30.279Z,98961.80
2022-12-18T04:37:57.214Z,98961.80
2022-12-18T04:40:23.962Z,98965.00
2022-12-18T04:42:50.958Z,98967.60
2022-12-18T04:45:17.843Z,98970.20
2022-12-18T04:47:45.476Z,98967.60
2022-12-18T04:50:12.991Z,98969.00
2022-12-18T04:52:39.803Z,98973.20
2022-12-18T04:55:07.365Z,98969.20
2022-12-18T04:57:34.307Z,98974.60
2022-12-18T05:00:01.046Z,98971.20
2022-12-18T05:02:27.999Z,98972.60
2022-12-18T05:04:54.979Z,98975.40
2022-12-18T05:07:21.777Z,98980.60
2022-12-18T05:09:48.480Z,98981.00
2022-12-18T05:12:15.463Z,98980.60
2022-12-18T05:14:42.411Z,98980.80
2022-12-18T05:17:09.146Z,98983.40
2022-12-18T05:19:35.888Z,98988.60
2022-12-18T05:22:04.047Z,98987.60
2022-12-18T05:24:30.816Z,98991.00
2022-12-18T05:26:57.691Z,98983.80
2022-12-18T05:29:24.690Z,98989.60
2022-12-18T05:31:51.455Z,98988.00
2022-12-18T05:34:18.240Z,98992.00
2022-12-18T05:36:45.113Z,98993.80
2022-12-18T05:39:11.958Z,98999.20
2022-12-18T05:41:38.798Z,99000.60
2022-12-18T05:44:05.851Z,99008.00
2022-12-18T05:46:33.165Z,99008.60
2022-12-18T05:49:02.300Z,99011.60
2022-12-18T05:51:29.199Z,99013.00
2022-12-18T05:53:56.288Z,99010.20
2022-12-18T05:56:24.040Z,99010.00
2022-12-18T05:58:55.297Z,99013.20
2022-12-18T06:01:25.495Z,99016.40
2022-12-18T06:03:52.348Z,99016.20
2022-12-18T06:06:25.501Z,99023.40
2022-12-18T06:08:53.006Z,99028.80
2022-12-18T06:11:22.305Z,99029.40
2022-12-18T06:13:58.253Z,99035.80
2022-12-18T06:16:25.680Z,99035.00
2022-12-18T06:18:52.572Z,99038.80
2022-12-18T06:21:19.610Z,99032.20
2022-12-18T06:23:46.285Z,99033.60
2022-12-18T06:26:14.530Z,99031.80
2022-12-18T06:28:41.643Z,99032.00
2022-12-18T06:31:09.601Z,99038.40
2022-12-18T06:33:37.190Z,99042.80
2022-12-18T06:36:10.008Z,99043.40
2022-12-18T06:38:42.258Z,99043.40
2022-12-18T06:41:10.941Z,99046.80
2022-12-18T06:43:38.065Z,99045.60
2022-12-18T06:46:06.078Z,99044.00
2022-12-18T06:48:33.611Z,99054.20
2022-12-18T06:51:00.532Z,99049.00
2022-12-18T06:53:27.707Z,99045.40
2022-12-18T06:56:06.417Z,99045.00
2022-12-18T06:58:36.169Z,99057.00
2022-12-18T07:01:08.180Z,99052.00
2022-12-18T07:03:35.351Z,99060.00
2022-12-18T07:06:02.397Z,99068.20
2022-12-18T07:08:31.246Z,99068.20
2022-12-18T07:10:58.246Z,99073.40
2022-12-18T07:13:25.279Z,99080.40
2022-12-18T07:15:52.012Z,99083.00
2022-12-18T07:18:18.728Z,99088.40
2022-12-18T07:20:45.401Z,99094.00
2022-12-18T07:23:13.059Z,99094.60
2022-12-18T07:25:40.617Z,99098.00
2022-12-18T07:28:08.214Z,99098.00
2022-12-18T07:30:38.970Z,99104.80
2022-12-18T07:33:05.654Z,99107.40
2022-12-18T07:35:34.269Z,99111.20
2022-12-18T07:38:01.388Z,99109.20
2022-12-18T07:40:28.223Z,99110.60
2022-12-18T07:42:54.878Z,99114.00
2022-12-18T07:45:21.613Z,99118.40
2022-12-18T07:47:48.340Z,99111.40
2022-12-18T07:50:15.762Z,99104.40
2022-12-18T07:52:42.424Z,99105.60
2022-12-18T07:55:09.602Z,99103.80
2022-12-18T07:57:54.303Z,99103.40
2022-12-18T08:00:23.412Z,99101.00
2022-12-18T08:02:50.267Z,99102.40
2022-12-18T08:05:17.370Z,99103.00
2022-12-18T08:07:44.071Z,99099.40
2022-12-18T08:10:10.833Z,99097.40
2022-12-18T08:12:37.553Z,99096.40
2022-12-18T08:15:04.778Z,99094.20
2022-12-18T08:17:31.955Z,99091.60
2022-12-18T08:19:58.795Z,99089.60
2022-12-18T08:22:25.943Z,99096.80
2022-12-18T08:24:52.647Z,99090.80
2022-12-18T08:27:34.928Z,99095.00
2022-12-18T08:30:02.137Z,99091.00
2022-12-18T08:32:29.406Z,99091.00
2022-12-18T08:34:56.336Z,99090.40
2022-12-18T08:37:23.180Z,99092.20
2022-12-18T08:39:49.847Z,99098.20
2022-12-18T08:42:35.395Z,99102.00
2022-12-18T08:45:03.099Z,99100.80
2022-12-18T08:47:29.783Z,99100.60
2022-12-18T08:49:56.541Z,99108.40
2022-12-18T08:52:23.227Z,99109.80
2022-12-18T08:54:50.017Z,99111.40
2022-12-18T08:57:17.185Z,99106.60
2022-12-18T08:59:43.858Z,99102.00
2022-12-18T09:02:12.062Z,99104.40
2022-12-18T09:04:41.063Z,99107.40
2022-12-18T09:07:08.022Z,99102.60
2022-12-18T09:09:34.758Z,99100.60
2022-12-18T09:12:01.453Z,99101.20
2022-12-18T09:14:28.134Z,99106.60
2022-12-18T09:16:54.944Z,99104.40
2022-12-18T09:19:21.792Z,99104.40
2022-12-18T09:21:48.725Z,99099.80
2022-12-18T09:24:16.628Z,99113.60
2022-12-18T09:26:44.643Z,99114.80
2022-12-18T09:29:13.972Z,99107.60
2022-12-18T09:31:41.611Z,99101.20
2022-12-18T09:34:08.864Z,99099.20
2022-12-18T09:36:35.663Z,99101.00
2022-12-18T09:39:07.578Z,99103.00
2022-12-18T09:41:54.735Z,99094.40
2022-12-18T09:44:26.237Z,99084.60
2022-12-18T09:46:59.684Z,99078.20
2022-12-18T09:49:31.747Z,99085.00
2022-12-18T09:52:05.177Z,99082.00
2022-12-18T09:54:40.790Z,99083.40
2022-12-18T09:57:07.641Z,99090.20
2022-12-18T09:59:40.856Z,99079.20
2022-12-18T10:02:26.096Z,99081.00
2022-12-18T10:05:18.130Z,99076.20
2022-12-18T10:07:50.607Z,99069.40
2022-12-18T10:10:24.330Z,99066.80
2022-12-18T10:13:12.151Z,99066.00
2022-12-18T10:16:07.919Z,99069.80
2022-12-18T10:19:02.558Z,99070.00
2022-12-18T10:21:35.849Z,99062.60
2022-12-18T10:24:17.547Z,99057.40
2022-12-18T10:26:45.518Z,99061.40
2022-12-18T10:29:14.224Z,99063.40
2022-12-18T10:31:41.154Z,99064.60
2022-12-18T10:34:13.943Z,99062.40
2022-12-18T10:36:41.489Z,99058.00
2022-12-18T10:39:21.164Z,99056.20
2022-12-18T10:41:47.968Z,99061.80
2022-12-18T10:44:21.376Z,99063.80
2022-12-18T10:46:51.614Z,99056.60
2022-12-18T10:49:22.429Z,99044.80
2022-12-18T10:51:49.777Z,99041.20
2022-12-18T10:54:24.912Z,99045.60
2022-12-18T10:56:51.753Z,99034.40
2022-12-18T10:59:19.318Z,99025.60
2022-12-18T11:01:56.202Z,99024.20
2022-12-18T11:04:24.468Z,99019.00
2022-12-18T11:07:03.186Z,99018.60
2022-12-18T11:09:37.570Z,99016.60
2022-12-18T11:12:18.032Z,99007.60
2022-12-18T11:14:53.211Z,99000.00
2022-12-18T11:17:27.212Z,98999.80
2022-12-18T11:20:02.248Z,98998.40
2022-12-18T11:22:31.753Z,98994.00
2022-12-18T11:25:32.403Z,98994.80
2022-12-18T11:28:21.652Z,98996.20
2022-12-18T11:30:48.387Z,98996.20
2022-12-18T11:33:23.326Z,98996.60
2022-12-18T11:35:58.664Z,98993.00
2022-12-18T11:38:30.013Z,98994.00
2022-12-18T11:41:01.258Z,98992.20
2022-12-18T11:43:51.449Z,98991.40
2022-12-18T11:46:33.569Z,98994.40
2022-12-18T11:49:11.159Z,98987.60
2022-12-18T11:52:16.822Z,98997.00
2022-12-18T11:54:43.637Z,98995.60
2022-12-18T11:57:44.653Z,98997.00
2022-12-18T12:00:17.799Z,98993.80
2022-12-18T12:03:28.029Z,98990.20
2022-12-18T12:06:03.064Z,98989.40
2022-12-18T12:08:41.925Z,98993.20
2022-12-18T12:11:34.637Z,98991.20
2022-12-18T12:14:07.213Z,98991.40
2022-12-18T12:16:44.147Z,98992.40
2022-12-18T12:19:25.884Z,98990.00
2022-12-18T12:22:01.736Z,98990.80
2022-12-18T12:24:43.017Z,98990.80
2022-12-18T12:27:19.271Z,98984.40
2022-12-18T12:30:20.324Z,98977.40
2022-12-18T12:32:58.339Z,98973.60
2022-12-18T12:36:00.717Z,98972.20
2022-12-18T12:38:56.734Z,98962.80
2022-12-18T12:41:50.699Z,98962.80
2022-12-18T12:44:26.561Z,98962.20
2022-12-18T12:46:59.760Z,98964.00
2022-12-18T12:49:30.728Z,98959.80
2022-12-18T12:52:14.975Z,98960.40
2022-12-18T12:54:43.217Z,98964.80
2022-12-18T12:57:24.806Z,98972.20
2022-12-18T13:00:04.763Z,98982.20
2022-12-18T13:02:44.002Z,98991.40
2022-12-18T13:05:13.496Z,98999.00
2022-12-18T13:07:47.301Z,99005.20
2022-12-18T13:10:29.101Z,99008.40
2022-12-18T13:12:58.492Z,99006.60
2022-12-18T13:15:31.220Z,99011.20
2022-12-18T13:18:09.584Z,99013.80
2022-12-18T13:20:46.596Z,99020.20
2022-12-18T13:23:39.615Z,99024.20
2022-12-18T13:26:10.969Z,99030.00
2022-12-18T13:28:47.309Z,99033.20
2022-12-18T13:31:42.063Z,99031.00
2022-12-18T13:34:29.675Z,99035.60
2022-12-18T13:37:00.617Z,99048.60
2022-12-18T13:39:35.450Z,99054.00
2022-12-18T13:42:08.742Z,99053.80
2022-12-18T13:44:40.921Z,99049.40
2022-12-18T13:47:39.075Z,99056.80
2022-12-18T13:50:28.565Z,99063.80
2022-12-18T13:52:59.478Z,99061.40
2022-12-18T13:55:26.473Z,99059.20
2022-12-18T13:58:05.764Z,99061.00
2022-12-18T14:00:32.926Z,99056.00
2022-12-18T14:03:00.949Z,99063.60
2022-12-18T14:05:33.597Z,99065.80
2022-12-18T14:08:07.260Z,99064.40
2022-12-18T14:10:49.195Z,99064.80
2022-12-18T14:13:25.056Z,99061.20
2022-12-18T14:15:52.666Z,99060.60
2022-12-18T14:18:27.802Z,99063.60
2022-12-18T14:20:58.903Z,99061.00
2022-12-18T14:23:37.561Z,99058.80
2022-12-18T14:26:30.187Z,99058.40
2022-12-18T14:29:02.264Z,99056.60
2022-12-18T14:31:31.588Z,99043.40
2022-12-18T14:33:58.332Z,99055.00
2022-12-18T14:36:27.844Z,99054.60
2022-12-18T14:38:59.884Z,99059.40
2022-12-18T14:41:27.769Z,99056.00
2022-12-18T14:43:55.436Z,99052.80
2022-12-18T14:46:34.103Z,99046.00
2022-12-18T14:49:21.967Z,99041.80
2022-12-18T14:51:57.258Z,99041.40
2022-12-18T14:54:25.995Z,99047.40
2022-12-18T14:57:04.205Z,99052.80
2022-12-18T14:59:32.278Z,99065.60
2022-12-18T15:02:19.868Z,99068.00
2022-12-18T15:04:47.413Z,99065.60
2022-12-18T15:07:14.763Z,99073.60
2022-12-18T15:09:44.821Z,99073.40
2022-12-18T15:12:34.272Z,99078.00
2022-12-18T15:15:01.250Z,99085.60
2022-12-18T15:17:28.502Z,99084.20
2022-12-18T15:20:02.340Z,99086.20
2022-12-18T15:22:32.025Z,99088.80
2022-12-18T15:24:59.723Z,99090.40
2022-12-18T15:27:34.536Z,99089.00
2022-12-18T15:30:26.031Z,99092.20
2022-12-18T15:33:13.351Z,99092.00
2022-12-18T15:35:45.262Z,99094.40
2022-12-18T15:38:13.797Z,99095.20
2022-12-18T15:40:41.664Z,99100.00
2022-12-18T15:43:29.394Z,99107.80
2022-12-18T15:45:56.118Z,99106.20
2022-12-18T15:48:24.513Z,99106.00
2022-12-18T15:50:53.096Z,99101.20
2022-12-18T15:53:20.536Z,99108.00
2022-12-18T15:56:05.815Z,99096.40
2022-12-18T15:58:34.201Z,99096.40
2022-12-18T16:01:02.621Z,99099.00
2022-12-18T16:03:29.602Z,99102.20
2022-12-18T16:05:56.981Z,99096.20
2022-12-18T16:08:25.157Z,99094.40
2022-12-18T16:10:51.900Z,99094.80
2022-12-18T16:13:21.196Z,99090.80
2022-12-18T16:15:47.982Z,99088.60
2022-12-18T16:18:15.391Z,99077.40
2022-12-18T16:20:42.141Z,99089.20
2022-12-18T16:23:09.077Z,99086.60
2022-12-18T16:25:35.829Z,99080.40
2022-12-18T16:28:02.584Z,99079.00
2022-12-18T16:30:33.064Z,99079.80
2022-12-18T16:33:07.881Z,99080.80
2022-12-18T16:35:35.275Z,99070.00
2022-12-18T16:38:02.115Z,99066.60
2022-12-18T16:40:28.954Z,99069.00
2022-12-18T16:42:55.795Z,99074.00
2022-12-18T16:45:22.742Z,99068.00
2022-12-18T16:47:50.915Z,99069.40
2022-12-18T16:50:21.543Z,99065.40
2022-12-18T16:52:52.176Z,99069.00
2022-12-18T16:55:22.567Z,99076.40
2022-12-18T16:57:49.443Z,99078.40
2022-12-18T17:00:16.798Z,99076.40
2022-12-18T17:02:46.181Z,99076.60
2022-12-18T17:05:14.298Z,99080.00
2022-12-18T17:07:42.016Z,99082.40
2022-12-18T17:10:13.383Z,99076.80
2022-12-18T17:12:50.362Z,99077.60
2022-12-18T17:15:18.024Z,99080.60
2022-12-18T17:17:48.655Z,99072.00
2022-12-18T17:20:16.876Z,99077.40
2022-12-18T17:22:46.287Z,99076.80
2022-12-18T17:25:16.862Z,99054.00
2022-12-18T17:27:44.344Z,99075.80
2022-12-18T17:30:13.787Z,99073.40
2022-12-18T17:32:41.075Z,99071.80
2022-12-18T17:35:08.429Z,99070.40
2022-12-18T17:37:38.110Z,99070.60
2022-12-18T17:40:07.752Z,99064.80
2022-12-18T17:42:36.238Z,99068.80
2022-12-18T17:45:03.682Z,99067.80
2022-12-18T17:47:32.674Z,99077.20
2022-12-18T17:50:00.855Z,99072.80
2022-12-18T17:52:27.797Z,99063.20
2022-12-18T17:57:37.246Z,99059.80
2022-12-18T18:00:05.999Z,99066.40
2022-12-18T18:02:36.464Z,99067.40
2022-12-18T18:05:03.712Z,99064.60
2022-12-18T18:07:31.271Z,99054.60
2022-12-18T18:09:58.115Z,99058.20
2022-12-18T18:12:43.492Z,99058.00
2022-12-18T18:15:10.827Z,99056.60
2022-12-18T18:17:37.662Z,99056.20
2022-12-18T18:20:06.270Z,99055.20
2022-12-18T18:22:33.936Z,99057.00
2022-12-18T18:25:00.980Z,99053.80
2022-12-18T18:27:29.991Z,99060.80
2022-12-18T18:29:58.508Z,99065.60
2022-12-18T18:32:25.173Z,99058.00
2022-12-18T18:34:52.240Z,99057.40
2022-12-18T18:37:19.517Z,99052.40
2022-12-18T18:39:46.286Z,99055.60
2022-12-18T18:42:13.080Z,99065.80
2022-12-18T18:44:42.299Z,99063.40
2022-12-18T18:47:14.340Z,99064.00
2022-12-18T18:49:41.076Z,99061.00
2022-12-18T18:52:07.815Z,99066.20
2022-12-18T18:54:34.792Z,99069.80
2022-12-18T18:57:20.033Z,99069.60
2022-12-18T18:59:47.945Z,99072.80
2022-12-18T19:02:16.058Z,99079.60
2022-12-18T19:04:45.707Z,99079.60
2022-12-18T19:07:29.448Z,99086.80
2022-12-18T19:10:04.295Z,99073.60
2022-12-18T19:12:51.412Z,99068.80
2022-12-18T19:15:18.207Z,99068.40
2022-12-18T19:17:47.023Z,99056.00
2022-12-18T19:20:14.515Z,99060.60
2022-12-18T19:22:41.181Z,99058.20
2022-12-18T19:25:10.041Z,99060.60
2022-12-18T19:27:39.279Z,99061.40
2022-12-18T19:30:06.636Z,99063.40
2022-12-18T19:32:34.055Z,99065.40
2022-12-18T19:35:00.933Z,99058.20
2022-12-18T19:37:28.594Z,99058.00
2022-12-18T19:39:56.799Z,99054.80
2022-12-18T19:42:29.427Z,99050.60
2022-12-18T19:45:00.185Z,99046.40
2022-12-18T19:47:26.894Z,99034.00
2022-12-18T19:49:53.736Z,99027.40
2022-12-18T19:52:20.472Z,99027.40
2022-12-18T19:54:47.653Z,99031.80
2022-12-18T19:57:14.392Z,99026.40
2022-12-18T19:59:41.274Z,99029.00
2022-12-18T20:02:13.789Z,99017.60
2022-12-18T20:04:41.125Z,99020.00
2022-12-18T20:07:07.831Z,99021.00
2022-12-18T20:09:36.344Z,99019.60
2022-12-18T20:12:04.546Z,99019.20
2022-12-18T20:14:31.402Z,99021.20
2022-12-18T20:16:58.172Z,99013.40
2022-12-18T20:19:27.244Z,99013.60
2022-12-18T20:21:53.976Z,99014.00
2022-12-18T20:24:20.695Z,99012.40
2022-12-18T20:26:47.448Z,99012.40
2022-12-18T20:29:14.203Z,99015.40
2022-12-18T20:31:40.985Z,99015.80
2022-12-18T20:34:08.418Z,99017.60
2022-12-18T20:36:37.558Z,99016.20
2022-12-18T20:39:07.482Z,99019.60
2022-12-18T20:41:38.241Z,99018.40
2022-12-18T20:44:22.236Z,99013.80
2022-12-18T20:46:56.539Z,99018.80
2022-12-18T20:49:24.418Z,99010.40
2022-12-18T20:51:53.169Z,99006.00
2022-12-18T20:54:21.267Z,99001.00
2022-12-18T20:56:48.038Z,99002.00
2022-12-18T20:59:14.898Z,98999.20
2022-12-18T21:01:46.028Z,98998.40
2022-12-18T21:04:18.285Z,98996.20
2022-12-18T21:06:50.975Z,98997.40
2022-12-18T21:09:18.456Z,98997.80
2022-12-18T21:12:03.600Z,98999.60
2022-12-18T21:14:31.293Z,99005.20
2022-12-18T21:17:00.938Z,98999.80
2022-12-18T21:19:28.675Z,98999.00
2022-12-18T21:21:56.684Z,98988.00
2022-12-18T21:24:24.473Z,98990.80
2022-12-18T21:26:52.354Z,98990.80
2022-12-18T21:29:24.759Z,98993.40
2022-12-18T21:31:53.771Z,98992.60
2022-12-18T21:34:25.550Z,98986.00
2022-12-18T21:36:53.395Z,98982.60
2022-12-18T21:39:22.470Z,98974.40
2022-12-18T21:42:09.520Z,98973.80
2022-12-18T21:44:41.980Z,98966.60
2022-12-18T21:47:16.079Z,98971.20
2022-12-18T21:49:49.448Z,98972.60
2022-12-18T21:52:16.969Z,98969.60
2022-12-18T21:54:43.679Z,98966.00
2022-12-18T21:57:13.482Z,98958.40
2022-12-18T21:59:42.649Z,98958.00
2022-12-18T22:02:18.634Z,98957.80
2022-12-18T22:04:47.086Z,98959.20
2022-12-18T22:07:16.386Z,98961.20
2022-12-18T22:09:43.503Z,98958.80
2022-12-18T22:12:12.731Z,98952.80
2022-12-18T22:14:39.470Z,98953.00
2022-12-18T22:17:06.323Z,98952.60
2022-12-18T22:19:38.123Z,98949.20
2022-12-18T22:22:09.757Z,98940.60
2022-12-18T22:24:36.438Z,98940.00
2022-12-18T22:27:03.196Z,98939.80
2022-12-18T22:29:48.786Z,98935.00
2022-12-18T22:32:20.065Z,98932.80
2022-12-18T22:35:07.963Z,98933.40
2022-12-18T22:37:37.068Z,98935.60
2022-12-18T22:40:06.103Z,98936.20
2022-12-18T22:42:34.235Z,98935.80
2022-12-18T22:45:00.904Z,98934.80
2022-12-18T22:47:30.103Z,98931.40
2022-12-18T22:49:58.428Z,98927.20
2022-12-18T22:52:25.454Z,98928.00
2022-12-18T22:54:54.087Z,98923.80
2022-12-18T22:57:24.431Z,98923.80
2022-12-18T22:59:51.761Z,98921.60
2022-12-18T23:02:19.679Z,98921.00
2022-12-18T23:04:47.789Z,98924.20
2022-12-18T23:07:15.673Z,98921.80
2022-12-18T23:09:42.922Z,98920.60
2022-12-18T23:12:21.219Z,98918.40
2022-12-18T23:14:48.281Z,98915.00
2022-12-18T23:17:14.990Z,98910.00
2022-12-18T23:19:47.135Z,98909.00
2022-12-18T23:22:15.758Z,98908.20
2022-12-18T23:24:42.423Z,98899.40
2022-12-18T23:27:11.389Z,98901.80
2022-12-18T23:29:39.457Z,98905.00
2022-12-18T23:32:06.708Z,98910.00
2022-12-18T23:34:33.387Z,98909.00
2022-12-18T23:37:01.181Z,98906.60
2022-12-18T23:39:29.898Z,98898.80
2022-12-18T23:41:58.622Z,98894.60
2022-12-18T23:44:25.671Z,98886.60
2022-12-18T23:46:52.895Z,98888.00
2022-12-18T23:49:20.344Z,98889.00
2022-12-18T23:51:47.180Z,98892.80
2022-12-18T23:54:13.920Z,98888.00
2022-12-18T23:56:40.877Z,98889.20
2022-12-18T23:59:07.613Z,98882.40
